Pays
Station

 

Conditions  météo  pour  Miami, Miami International Airport  -  Etats-Unis    Etats-Unis

  
24 °C
    
 
 

METAR pour Miami, Miami International Airport :

KMIA 251453Z 14015G24KT 7SM -RA FEW012 BKN043 OVC050 24/23 A2990 RMK AO2 PK WND 12027/1419 SLP125 P0006 60006 T02440233 53005 $

 

Voici le bulletin pour Miami, Miami International Airport - Etats-Unis.
 
Le bulletin a été fait il y a 33 minutes, à 14:53 UTC .
Le vent soufflait à la vitesse de 7.7 mètres par seconde avec des rafales jusqu'à 12.3 mètres par seconde de Sud-est (140°).
 
La température était de 24 °C, avec un point de rosée à 23 °C.
La température ressentie était de 23 °C.
 
La pression atmosphérique était de 1013 hPa.
L'humidité relative était de 94.2%.
 
Il y avait 1 à 2/8ème de nébulosité à une hauteur de 366 mètres et 5 à 7/8ème de nébulosité à une hauteur de 1311 mètres. Le ciel était nuageux à partir d'une hauteur de 1524 mètres
 
La visibilité globale était de 11.3 kilomètres.
 
Actuellement léger/legère pluie.

 
 
 

Pays :   A   B   C   D   E   F   G   H   I   J   K   L   M   N   O   P   Q   R   S   T   U   V   W   Y   Z

 

Partenaires :  Info Météo avec Met'info
Météo Marine avec MeteoMarine.net
Infos Site  |  Infos Légales  |  Crédits  |  Confidentialité
Contactez-nous  |  Ajouter aux favoris
© 2013-2020 METAR - Tous droits réservés